sensor_id;sensor_type;location;lat;lon;timestamp;P1;durP1;ratioP1;P2;durP2;ratioP2
6205;SDS011;3136;48.788;9.772;2022-11-20T00:00:57;15.10;;;10.60;;
6205;SDS011;3136;48.788;9.772;2022-11-20T00:03:28;15.57;;;9.77;;
6205;SDS011;3136;48.788;9.772;2022-11-20T00:05:54;16.60;;;9.90;;
6205;SDS011;3136;48.788;9.772;2022-11-20T00:08:25;13.63;;;9.97;;
6205;SDS011;3136;48.788;9.772;2022-11-20T00:10:50;14.47;;;9.67;;
6205;SDS011;3136;48.788;9.772;2022-11-20T00:13:16;15.33;;;10.00;;
6205;SDS011;3136;48.788;9.772;2022-11-20T00:15:41;15.40;;;10.60;;
6205;SDS011;3136;48.788;9.772;2022-11-20T00:18:07;14.43;;;10.17;;
6205;SDS011;3136;48.788;9.772;2022-11-20T00:20:32;15.43;;;10.00;;
6205;SDS011;3136;48.788;9.772;2022-11-20T00:22:58;16.13;;;9.50;;
6205;SDS011;3136;48.788;9.772;2022-11-20T00:25:24;14.27;;;9.83;;
6205;SDS011;3136;48.788;9.772;2022-11-20T00:27:50;16.43;;;9.03;;
6205;SDS011;3136;48.788;9.772;2022-11-20T00:30:15;13.37;;;9.43;;
6205;SDS011;3136;48.788;9.772;2022-11-20T00:32:41;11.40;;;8.27;;
6205;SDS011;3136;48.788;9.772;2022-11-20T00:35:07;12.27;;;8.17;;
6205;SDS011;3136;48.788;9.772;2022-11-20T00:37:32;13.13;;;8.33;;
6205;SDS011;3136;48.788;9.772;2022-11-20T00:39:58;14.57;;;8.10;;
6205;SDS011;3136;48.788;9.772;2022-11-20T00:42:23;11.27;;;7.80;;
6205;SDS011;3136;48.788;9.772;2022-11-20T00:44:49;11.13;;;7.30;;
6205;SDS011;3136;48.788;9.772;2022-11-20T00:47:14;14.30;;;8.40;;
6205;SDS011;3136;48.788;9.772;2022-11-20T00:49:40;13.90;;;8.57;;
6205;SDS011;3136;48.788;9.772;2022-11-20T00:52:05;12.53;;;7.83;;
6205;SDS011;3136;48.788;9.772;2022-11-20T00:54:31;11.93;;;8.10;;
6205;SDS011;3136;48.788;9.772;2022-11-20T00:56:57;12.27;;;7.27;;
6205;SDS011;3136;48.788;9.772;2022-11-20T00:59:22;12.20;;;7.93;;
6205;SDS011;3136;48.788;9.772;2022-11-20T01:01:48;10.43;;;7.17;;
6205;SDS011;3136;48.788;9.772;2022-11-20T01:04:13;8.87;;;7.10;;
6205;SDS011;3136;48.788;9.772;2022-11-20T01:06:39;10.53;;;6.97;;
6205;SDS011;3136;48.788;9.772;2022-11-20T01:09:06;12.97;;;6.93;;
6205;SDS011;3136;48.788;9.772;2022-11-20T01:11:35;12.57;;;7.20;;
6205;SDS011;3136;48.788;9.772;2022-11-20T01:14:03;10.83;;;7.30;;
6205;SDS011;3136;48.788;9.772;2022-11-20T01:16:31;15.30;;;7.40;;
6205;SDS011;3136;48.788;9.772;2022-11-20T01:19:00;10.70;;;7.03;;
6205;SDS011;3136;48.788;9.772;2022-11-20T01:21:37;14.17;;;6.87;;
6205;SDS011;3136;48.788;9.772;2022-11-20T01:24:05;11.00;;;7.20;;
6205;SDS011;3136;48.788;9.772;2022-11-20T01:26:33;12.20;;;7.83;;
6205;SDS011;3136;48.788;9.772;2022-11-20T01:29:00;11.90;;;7.13;;
6205;SDS011;3136;48.788;9.772;2022-11-20T01:31:28;11.10;;;7.10;;
6205;SDS011;3136;48.788;9.772;2022-11-20T01:34:02;14.07;;;7.53;;
6205;SDS011;3136;48.788;9.772;2022-11-20T01:36:30;12.80;;;7.70;;
6205;SDS011;3136;48.788;9.772;2022-11-20T01:39:00;11.50;;;7.23;;
6205;SDS011;3136;48.788;9.772;2022-11-20T01:41:28;10.90;;;7.13;;
6205;SDS011;3136;48.788;9.772;2022-11-20T01:44:15;14.67;;;7.60;;
6205;SDS011;3136;48.788;9.772;2022-11-20T01:46:50;11.87;;;7.23;;
6205;SDS011;3136;48.788;9.772;2022-11-20T01:49:33;9.73;;;7.10;;
6205;SDS011;3136;48.788;9.772;2022-11-20T01:52:05;10.63;;;7.10;;
6205;SDS011;3136;48.788;9.772;2022-11-20T01:54:42;10.17;;;6.67;;
6205;SDS011;3136;48.788;9.772;2022-11-20T01:57:12;9.77;;;7.33;;
6205;SDS011;3136;48.788;9.772;2022-11-20T01:59:41;8.23;;;6.60;;
6205;SDS011;3136;48.788;9.772;2022-11-20T02:02:14;12.30;;;7.20;;
6205;SDS011;3136;48.788;9.772;2022-11-20T02:04:40;11.00;;;6.57;;
6205;SDS011;3136;48.788;9.772;2022-11-20T02:07:05;10.43;;;6.67;;
6205;SDS011;3136;48.788;9.772;2022-11-20T02:09:31;11.37;;;6.60;;
6205;SDS011;3136;48.788;9.772;2022-11-20T02:11:57;8.57;;;6.30;;
6205;SDS011;3136;48.788;9.772;2022-11-20T02:14:23;11.57;;;6.60;;
6205;SDS011;3136;48.788;9.772;2022-11-20T02:16:50;7.73;;;6.53;;
6205;SDS011;3136;48.788;9.772;2022-11-20T02:19:22;9.47;;;5.93;;
6205;SDS011;3136;48.788;9.772;2022-11-20T02:22:09;9.30;;;6.33;;
6205;SDS011;3136;48.788;9.772;2022-11-20T02:24:46;9.03;;;6.10;;
6205;SDS011;3136;48.788;9.772;2022-11-20T02:27:15;9.67;;;6.13;;
6205;SDS011;3136;48.788;9.772;2022-11-20T02:32:17;8.43;;;6.00;;
6205;SDS011;3136;48.788;9.772;2022-11-20T02:34:44;8.43;;;5.57;;
6205;SDS011;3136;48.788;9.772;2022-11-20T02:37:10;9.00;;;6.27;;
6205;SDS011;3136;48.788;9.772;2022-11-20T02:39:35;8.60;;;6.10;;
6205;SDS011;3136;48.788;9.772;2022-11-20T02:42:01;8.73;;;5.67;;
6205;SDS011;3136;48.788;9.772;2022-11-20T02:44:27;8.27;;;5.67;;
6205;SDS011;3136;48.788;9.772;2022-11-20T02:46:52;9.33;;;5.80;;
6205;SDS011;3136;48.788;9.772;2022-11-20T02:49:18;6.90;;;5.40;;
6205;SDS011;3136;48.788;9.772;2022-11-20T02:51:44;7.40;;;5.37;;
6205;SDS011;3136;48.788;9.772;2022-11-20T02:54:09;9.60;;;6.10;;
6205;SDS011;3136;48.788;9.772;2022-11-20T02:56:37;8.43;;;5.90;;
6205;SDS011;3136;48.788;9.772;2022-11-20T02:59:03;9.47;;;6.20;;
6205;SDS011;3136;48.788;9.772;2022-11-20T03:01:29;6.63;;;5.53;;
6205;SDS011;3136;48.788;9.772;2022-11-20T03:03:55;7.73;;;5.80;;
6205;SDS011;3136;48.788;9.772;2022-11-20T03:06:21;5.93;;;5.03;;
6205;SDS011;3136;48.788;9.772;2022-11-20T03:08:47;8.57;;;5.60;;
6205;SDS011;3136;48.788;9.772;2022-11-20T03:11:12;7.97;;;5.40;;
6205;SDS011;3136;48.788;9.772;2022-11-20T03:13:38;8.23;;;5.60;;
6205;SDS011;3136;48.788;9.772;2022-11-20T03:16:05;9.37;;;5.73;;
6205;SDS011;3136;48.788;9.772;2022-11-20T03:18:31;11.60;;;5.90;;
6205;SDS011;3136;48.788;9.772;2022-11-20T03:20:57;11.80;;;6.03;;
6205;SDS011;3136;48.788;9.772;2022-11-20T03:23:24;8.10;;;5.73;;
6205;SDS011;3136;48.788;9.772;2022-11-20T03:25:49;8.50;;;5.83;;
6205;SDS011;3136;48.788;9.772;2022-11-20T03:28:15;9.17;;;6.07;;
6205;SDS011;3136;48.788;9.772;2022-11-20T03:30:40;8.17;;;6.10;;
6205;SDS011;3136;48.788;9.772;2022-11-20T03:33:06;10.53;;;5.50;;
6205;SDS011;3136;48.788;9.772;2022-11-20T03:35:32;7.77;;;5.80;;
6205;SDS011;3136;48.788;9.772;2022-11-20T03:37:57;10.60;;;5.90;;
6205;SDS011;3136;48.788;9.772;2022-11-20T03:40:23;9.10;;;5.93;;
6205;SDS011;3136;48.788;9.772;2022-11-20T03:42:49;7.30;;;5.63;;
6205;SDS011;3136;48.788;9.772;2022-11-20T03:45:15;10.93;;;6.00;;
6205;SDS011;3136;48.788;9.772;2022-11-20T03:47:42;6.70;;;5.40;;
6205;SDS011;3136;48.788;9.772;2022-11-20T03:50:08;9.00;;;5.77;;
6205;SDS011;3136;48.788;9.772;2022-11-20T03:52:37;7.53;;;5.87;;
6205;SDS011;3136;48.788;9.772;2022-11-20T03:55:03;7.40;;;5.13;;
6205;SDS011;3136;48.788;9.772;2022-11-20T03:57:30;8.80;;;5.70;;
6205;SDS011;3136;48.788;9.772;2022-11-20T03:59:56;8.23;;;5.60;;
6205;SDS011;3136;48.788;9.772;2022-11-20T04:02:21;7.43;;;5.40;;
6205;SDS011;3136;48.788;9.772;2022-11-20T04:04:47;7.77;;;5.70;;
6205;SDS011;3136;48.788;9.772;2022-11-20T04:07:13;6.43;;;5.50;;
6205;SDS011;3136;48.788;9.772;2022-11-20T04:09:38;7.17;;;5.30;;
6205;SDS011;3136;48.788;9.772;2022-11-20T04:12:04;7.70;;;5.20;;
6205;SDS011;3136;48.788;9.772;2022-11-20T04:14:29;6.80;;;5.07;;
6205;SDS011;3136;48.788;9.772;2022-11-20T04:16:55;8.47;;;5.27;;
6205;SDS011;3136;48.788;9.772;2022-11-20T04:19:20;7.80;;;5.13;;
6205;SDS011;3136;48.788;9.772;2022-11-20T04:21:46;6.20;;;5.00;;
6205;SDS011;3136;48.788;9.772;2022-11-20T04:24:12;6.67;;;4.73;;
6205;SDS011;3136;48.788;9.772;2022-11-20T04:26:37;10.10;;;4.83;;
6205;SDS011;3136;48.788;9.772;2022-11-20T04:29:03;8.20;;;5.07;;
6205;SDS011;3136;48.788;9.772;2022-11-20T04:31:30;9.30;;;4.80;;
6205;SDS011;3136;48.788;9.772;2022-11-20T04:34:01;8.33;;;4.63;;
6205;SDS011;3136;48.788;9.772;2022-11-20T04:36:28;7.23;;;5.00;;
6205;SDS011;3136;48.788;9.772;2022-11-20T04:38:55;5.50;;;4.50;;
6205;SDS011;3136;48.788;9.772;2022-11-20T04:41:23;6.00;;;3.90;;
6205;SDS011;3136;48.788;9.772;2022-11-20T04:43:52;7.00;;;4.20;;
6205;SDS011;3136;48.788;9.772;2022-11-20T04:46:23;6.63;;;4.20;;
6205;SDS011;3136;48.788;9.772;2022-11-20T04:48:50;6.30;;;4.00;;
6205;SDS011;3136;48.788;9.772;2022-11-20T04:51:15;8.27;;;4.40;;
6205;SDS011;3136;48.788;9.772;2022-11-20T04:53:41;6.43;;;4.40;;
6205;SDS011;3136;48.788;9.772;2022-11-20T04:56:08;6.57;;;4.30;;
6205;SDS011;3136;48.788;9.772;2022-11-20T04:58:35;5.40;;;4.27;;
6205;SDS011;3136;48.788;9.772;2022-11-20T05:01:04;9.23;;;4.57;;
6205;SDS011;3136;48.788;9.772;2022-11-20T05:03:40;5.33;;;3.90;;
6205;SDS011;3136;48.788;9.772;2022-11-20T05:06:07;4.83;;;3.73;;
6205;SDS011;3136;48.788;9.772;2022-11-20T05:08:34;8.10;;;4.37;;
6205;SDS011;3136;48.788;9.772;2022-11-20T05:11:04;4.93;;;3.57;;
6205;SDS011;3136;48.788;9.772;2022-11-20T05:13:34;6.73;;;3.67;;
6205;SDS011;3136;48.788;9.772;2022-11-20T05:16:06;4.60;;;3.60;;
6205;SDS011;3136;48.788;9.772;2022-11-20T05:18:34;5.60;;;4.23;;
6205;SDS011;3136;48.788;9.772;2022-11-20T05:21:00;4.87;;;3.70;;
6205;SDS011;3136;48.788;9.772;2022-11-20T05:23:26;5.83;;;3.90;;
6205;SDS011;3136;48.788;9.772;2022-11-20T05:25:54;5.43;;;3.63;;
6205;SDS011;3136;48.788;9.772;2022-11-20T05:28:20;7.67;;;4.37;;
6205;SDS011;3136;48.788;9.772;2022-11-20T05:30:47;4.20;;;3.33;;
6205;SDS011;3136;48.788;9.772;2022-11-20T05:33:13;6.87;;;4.20;;
6205;SDS011;3136;48.788;9.772;2022-11-20T05:35:38;5.10;;;3.87;;
6205;SDS011;3136;48.788;9.772;2022-11-20T05:38:04;5.60;;;3.57;;
6205;SDS011;3136;48.788;9.772;2022-11-20T05:40:29;5.00;;;3.33;;
6205;SDS011;3136;48.788;9.772;2022-11-20T05:42:55;4.20;;;3.50;;
6205;SDS011;3136;48.788;9.772;2022-11-20T05:45:21;5.43;;;3.60;;
6205;SDS011;3136;48.788;9.772;2022-11-20T05:47:46;4.00;;;3.27;;
6205;SDS011;3136;48.788;9.772;2022-11-20T05:50:12;4.20;;;3.80;;
6205;SDS011;3136;48.788;9.772;2022-11-20T05:52:39;4.90;;;3.53;;
6205;SDS011;3136;48.788;9.772;2022-11-20T05:55:05;4.47;;;3.60;;
6205;SDS011;3136;48.788;9.772;2022-11-20T05:57:31;3.93;;;3.07;;
6205;SDS011;3136;48.788;9.772;2022-11-20T05:59:57;12.60;;;5.40;;
6205;SDS011;3136;48.788;9.772;2022-11-20T06:02:22;5.20;;;3.67;;
6205;SDS011;3136;48.788;9.772;2022-11-20T06:04:48;4.50;;;3.40;;
6205;SDS011;3136;48.788;9.772;2022-11-20T06:07:13;3.87;;;3.40;;
6205;SDS011;3136;48.788;9.772;2022-11-20T06:09:39;4.83;;;3.53;;
6205;SDS011;3136;48.788;9.772;2022-11-20T06:12:05;5.63;;;3.13;;
6205;SDS011;3136;48.788;9.772;2022-11-20T06:14:30;4.80;;;3.30;;
6205;SDS011;3136;48.788;9.772;2022-11-20T06:16:56;4.87;;;3.03;;
6205;SDS011;3136;48.788;9.772;2022-11-20T06:19:22;4.40;;;2.93;;
6205;SDS011;3136;48.788;9.772;2022-11-20T06:21:48;4.37;;;3.33;;
6205;SDS011;3136;48.788;9.772;2022-11-20T06:24:14;3.97;;;2.97;;
6205;SDS011;3136;48.788;9.772;2022-11-20T06:26:40;4.17;;;3.03;;
6205;SDS011;3136;48.788;9.772;2022-11-20T06:29:06;5.37;;;3.10;;
6205;SDS011;3136;48.788;9.772;2022-11-20T06:31:31;4.83;;;2.80;;
6205;SDS011;3136;48.788;9.772;2022-11-20T06:34:03;5.77;;;3.10;;
6205;SDS011;3136;48.788;9.772;2022-11-20T06:36:30;4.37;;;3.00;;
6205;SDS011;3136;48.788;9.772;2022-11-20T06:38:55;4.63;;;2.87;;
6205;SDS011;3136;48.788;9.772;2022-11-20T06:41:21;3.67;;;2.57;;
6205;SDS011;3136;48.788;9.772;2022-11-20T06:43:47;4.33;;;2.63;;
6205;SDS011;3136;48.788;9.772;2022-11-20T06:46:14;3.17;;;2.60;;
6205;SDS011;3136;48.788;9.772;2022-11-20T06:48:42;2.90;;;2.60;;
6205;SDS011;3136;48.788;9.772;2022-11-20T06:51:08;3.93;;;2.50;;
6205;SDS011;3136;48.788;9.772;2022-11-20T06:53:34;3.43;;;2.43;;
6205;SDS011;3136;48.788;9.772;2022-11-20T06:56:00;3.73;;;2.60;;
6205;SDS011;3136;48.788;9.772;2022-11-20T06:58:26;4.77;;;2.37;;
6205;SDS011;3136;48.788;9.772;2022-11-20T07:00:53;3.67;;;2.63;;
6205;SDS011;3136;48.788;9.772;2022-11-20T07:03:23;3.27;;;2.30;;
6205;SDS011;3136;48.788;9.772;2022-11-20T07:05:48;3.63;;;2.53;;
6205;SDS011;3136;48.788;9.772;2022-11-20T07:08:14;3.07;;;2.53;;
6205;SDS011;3136;48.788;9.772;2022-11-20T07:10:39;2.57;;;2.27;;
6205;SDS011;3136;48.788;9.772;2022-11-20T07:13:05;3.90;;;2.43;;
6205;SDS011;3136;48.788;9.772;2022-11-20T07:15:31;3.90;;;2.10;;
6205;SDS011;3136;48.788;9.772;2022-11-20T07:18:01;3.97;;;2.30;;
6205;SDS011;3136;48.788;9.772;2022-11-20T07:20:27;2.77;;;2.37;;
6205;SDS011;3136;48.788;9.772;2022-11-20T07:22:56;5.40;;;2.13;;
6205;SDS011;3136;48.788;9.772;2022-11-20T07:25:23;2.97;;;2.33;;
6205;SDS011;3136;48.788;9.772;2022-11-20T07:27:49;4.33;;;2.23;;
6205;SDS011;3136;48.788;9.772;2022-11-20T07:30:15;3.83;;;2.37;;
6205;SDS011;3136;48.788;9.772;2022-11-20T07:32:41;3.53;;;2.20;;
6205;SDS011;3136;48.788;9.772;2022-11-20T07:35:07;2.47;;;2.20;;
6205;SDS011;3136;48.788;9.772;2022-11-20T07:37:36;2.40;;;2.20;;
6205;SDS011;3136;48.788;9.772;2022-11-20T07:40:02;2.40;;;2.10;;
6205;SDS011;3136;48.788;9.772;2022-11-20T07:42:28;2.60;;;2.40;;
6205;SDS011;3136;48.788;9.772;2022-11-20T07:44:54;3.63;;;2.30;;
6205;SDS011;3136;48.788;9.772;2022-11-20T07:47:19;4.43;;;2.57;;
6205;SDS011;3136;48.788;9.772;2022-11-20T07:49:45;3.10;;;2.30;;
6205;SDS011;3136;48.788;9.772;2022-11-20T07:52:11;2.43;;;2.00;;
6205;SDS011;3136;48.788;9.772;2022-11-20T07:54:37;3.17;;;2.40;;
6205;SDS011;3136;48.788;9.772;2022-11-20T07:57:02;3.97;;;2.40;;
6205;SDS011;3136;48.788;9.772;2022-11-20T07:59:28;3.20;;;2.10;;
6205;SDS011;3136;48.788;9.772;2022-11-20T08:01:53;3.07;;;2.20;;
6205;SDS011;3136;48.788;9.772;2022-11-20T08:04:20;2.70;;;2.03;;
6205;SDS011;3136;48.788;9.772;2022-11-20T08:06:45;3.33;;;2.00;;
6205;SDS011;3136;48.788;9.772;2022-11-20T08:09:11;3.33;;;2.23;;
6205;SDS011;3136;48.788;9.772;2022-11-20T08:11:36;3.50;;;2.30;;
6205;SDS011;3136;48.788;9.772;2022-11-20T08:14:21;2.57;;;2.10;;
6205;SDS011;3136;48.788;9.772;2022-11-20T08:16:47;2.20;;;2.00;;
6205;SDS011;3136;48.788;9.772;2022-11-20T08:19:14;3.20;;;2.20;;
6205;SDS011;3136;48.788;9.772;2022-11-20T08:21:41;2.20;;;1.90;;
6205;SDS011;3136;48.788;9.772;2022-11-20T08:24:07;2.93;;;2.20;;
6205;SDS011;3136;48.788;9.772;2022-11-20T08:26:34;3.60;;;1.90;;
6205;SDS011;3136;48.788;9.772;2022-11-20T08:29:00;4.93;;;2.10;;
6205;SDS011;3136;48.788;9.772;2022-11-20T08:31:26;2.40;;;2.03;;
6205;SDS011;3136;48.788;9.772;2022-11-20T08:33:52;2.00;;;1.80;;
6205;SDS011;3136;48.788;9.772;2022-11-20T08:36:19;1.90;;;1.70;;
6205;SDS011;3136;48.788;9.772;2022-11-20T08:38:49;2.43;;;2.00;;
6205;SDS011;3136;48.788;9.772;2022-11-20T08:41:19;2.93;;;1.90;;
6205;SDS011;3136;48.788;9.772;2022-11-20T08:44:01;3.03;;;2.20;;
6205;SDS011;3136;48.788;9.772;2022-11-20T08:46:32;2.00;;;1.80;;
6205;SDS011;3136;48.788;9.772;2022-11-20T08:49:02;3.93;;;2.33;;
6205;SDS011;3136;48.788;9.772;2022-11-20T08:51:32;2.10;;;1.90;;
6205;SDS011;3136;48.788;9.772;2022-11-20T08:53:58;3.43;;;1.70;;
6205;SDS011;3136;48.788;9.772;2022-11-20T08:56:23;1.80;;;1.70;;
6205;SDS011;3136;48.788;9.772;2022-11-20T08:58:49;3.07;;;1.87;;
6205;SDS011;3136;48.788;9.772;2022-11-20T09:01:17;2.27;;;1.90;;
6205;SDS011;3136;48.788;9.772;2022-11-20T09:03:43;2.10;;;1.90;;
6205;SDS011;3136;48.788;9.772;2022-11-20T09:06:09;3.13;;;1.80;;
6205;SDS011;3136;48.788;9.772;2022-11-20T09:08:35;1.63;;;1.53;;
6205;SDS011;3136;48.788;9.772;2022-11-20T09:11:03;3.07;;;1.97;;
6205;SDS011;3136;48.788;9.772;2022-11-20T09:13:30;2.20;;;1.73;;
6205;SDS011;3136;48.788;9.772;2022-11-20T09:16:00;2.30;;;1.90;;
6205;SDS011;3136;48.788;9.772;2022-11-20T09:18:28;1.87;;;1.60;;
6205;SDS011;3136;48.788;9.772;2022-11-20T09:20:57;4.73;;;1.70;;
6205;SDS011;3136;48.788;9.772;2022-11-20T09:23:23;2.03;;;1.80;;
6205;SDS011;3136;48.788;9.772;2022-11-20T09:25:50;2.67;;;1.67;;
6205;SDS011;3136;48.788;9.772;2022-11-20T09:28:15;2.93;;;1.97;;
6205;SDS011;3136;48.788;9.772;2022-11-20T09:30:43;1.63;;;1.53;;
6205;SDS011;3136;48.788;9.772;2022-11-20T09:33:09;1.77;;;1.53;;
6205;SDS011;3136;48.788;9.772;2022-11-20T09:35:34;2.33;;;1.60;;
6205;SDS011;3136;48.788;9.772;2022-11-20T09:38:06;2.60;;;1.97;;
6205;SDS011;3136;48.788;9.772;2022-11-20T09:40:32;1.70;;;1.43;;
6205;SDS011;3136;48.788;9.772;2022-11-20T09:43:16;2.30;;;1.30;;
6205;SDS011;3136;48.788;9.772;2022-11-20T09:48:41;3.10;;;1.50;;
6205;SDS011;3136;48.788;9.772;2022-11-20T09:54:15;1.73;;;1.60;;
6205;SDS011;3136;48.788;9.772;2022-11-20T09:59:51;2.00;;;1.60;;
6205;SDS011;3136;48.788;9.772;2022-11-20T10:02:27;1.70;;;1.57;;
6205;SDS011;3136;48.788;9.772;2022-11-20T10:20:10;1.87;;;1.40;;
6205;SDS011;3136;48.788;9.772;2022-11-20T10:28:56;2.17;;;1.60;;
6205;SDS011;3136;48.788;9.772;2022-11-20T10:31:41;1.80;;;1.53;;
6205;SDS011;3136;48.788;9.772;2022-11-20T10:34:21;2.03;;;1.30;;
6205;SDS011;3136;48.788;9.772;2022-11-20T10:36:58;1.77;;;1.67;;
6205;SDS011;3136;48.788;9.772;2022-11-20T10:42:16;1.67;;;1.47;;
6205;SDS011;3136;48.788;9.772;2022-11-20T10:44:51;1.70;;;1.40;;
6205;SDS011;3136;48.788;9.772;2022-11-20T10:47:26;2.00;;;1.60;;
6205;SDS011;3136;48.788;9.772;2022-11-20T10:49:55;2.27;;;1.50;;
6205;SDS011;3136;48.788;9.772;2022-11-20T10:57:46;1.90;;;1.70;;
6205;SDS011;3136;48.788;9.772;2022-11-20T11:00:20;1.97;;;1.50;;
6205;SDS011;3136;48.788;9.772;2022-11-20T11:05:24;2.27;;;1.50;;
6205;SDS011;3136;48.788;9.772;2022-11-20T11:08:16;4.33;;;1.80;;
6205;SDS011;3136;48.788;9.772;2022-11-20T11:13:24;2.87;;;2.40;;
6205;SDS011;3136;48.788;9.772;2022-11-20T11:15:51;2.73;;;1.60;;
6205;SDS011;3136;48.788;9.772;2022-11-20T11:18:31;3.20;;;1.90;;
6205;SDS011;3136;48.788;9.772;2022-11-20T11:20:59;3.30;;;2.30;;
6205;SDS011;3136;48.788;9.772;2022-11-20T11:26:03;2.23;;;2.00;;
6205;SDS011;3136;48.788;9.772;2022-11-20T11:28:31;2.60;;;1.80;;
6205;SDS011;3136;48.788;9.772;2022-11-20T11:30:57;1.60;;;1.50;;
6205;SDS011;3136;48.788;9.772;2022-11-20T11:36:34;1.80;;;1.70;;
6205;SDS011;3136;48.788;9.772;2022-11-20T11:38:44;3.23;;;1.50;;
6205;SDS011;3136;48.788;9.772;2022-11-20T11:41:18;6.93;;;2.00;;
6205;SDS011;3136;48.788;9.772;2022-11-20T11:43:53;1.43;;;1.33;;
6205;SDS011;3136;48.788;9.772;2022-11-20T11:46:39;1.57;;;1.40;;
6205;SDS011;3136;48.788;9.772;2022-11-20T11:49:13;1.90;;;1.70;;
6205;SDS011;3136;48.788;9.772;2022-11-20T11:54:15;1.50;;;1.40;;
6205;SDS011;3136;48.788;9.772;2022-11-20T11:56:45;3.93;;;1.70;;
6205;SDS011;3136;48.788;9.772;2022-11-20T11:59:12;1.77;;;1.20;;
6205;SDS011;3136;48.788;9.772;2022-11-20T12:01:51;2.13;;;1.50;;
6205;SDS011;3136;48.788;9.772;2022-11-20T12:04:34;1.67;;;1.53;;
6205;SDS011;3136;48.788;9.772;2022-11-20T12:07:15;3.83;;;3.00;;
6205;SDS011;3136;48.788;9.772;2022-11-20T12:10:08;2.23;;;2.00;;
6205;SDS011;3136;48.788;9.772;2022-11-20T12:12:49;1.80;;;1.60;;
6205;SDS011;3136;48.788;9.772;2022-11-20T12:15:25;7.23;;;6.53;;
6205;SDS011;3136;48.788;9.772;2022-11-20T12:17:54;1.97;;;1.70;;
6205;SDS011;3136;48.788;9.772;2022-11-20T12:20:19;1.50;;;1.40;;
6205;SDS011;3136;48.788;9.772;2022-11-20T12:25:47;1.70;;;1.60;;
6205;SDS011;3136;48.788;9.772;2022-11-20T12:28:18;1.77;;;1.60;;
6205;SDS011;3136;48.788;9.772;2022-11-20T12:42:17;2.63;;;1.87;;
6205;SDS011;3136;48.788;9.772;2022-11-20T12:45:05;4.33;;;1.97;;
6205;SDS011;3136;48.788;9.772;2022-11-20T12:53:22;1.83;;;1.60;;
6205;SDS011;3136;48.788;9.772;2022-11-20T12:55:56;4.53;;;3.67;;
6205;SDS011;3136;48.788;9.772;2022-11-20T12:58:28;1.73;;;1.53;;
6205;SDS011;3136;48.788;9.772;2022-11-20T13:01:00;5.73;;;3.23;;
6205;SDS011;3136;48.788;9.772;2022-11-20T13:08:42;9.57;;;5.00;;
6205;SDS011;3136;48.788;9.772;2022-11-20T13:17:16;16.40;;;7.67;;
6205;SDS011;3136;48.788;9.772;2022-11-20T13:20:06;37.83;;;20.60;;
6205;SDS011;3136;48.788;9.772;2022-11-20T13:22:48;7.20;;;2.40;;
6205;SDS011;3136;48.788;9.772;2022-11-20T13:25:25;5.00;;;4.03;;
6205;SDS011;3136;48.788;9.772;2022-11-20T13:27:53;6.60;;;4.27;;
6205;SDS011;3136;48.788;9.772;2022-11-20T13:30:20;6.70;;;4.20;;
6205;SDS011;3136;48.788;9.772;2022-11-20T13:32:50;2.83;;;1.80;;
6205;SDS011;3136;48.788;9.772;2022-11-20T13:35:55;3.50;;;2.73;;
6205;SDS011;3136;48.788;9.772;2022-11-20T13:38:48;1.93;;;1.73;;
6205;SDS011;3136;48.788;9.772;2022-11-20T13:46:39;3.77;;;2.10;;
6205;SDS011;3136;48.788;9.772;2022-11-20T13:49:06;3.40;;;2.30;;
6205;SDS011;3136;48.788;9.772;2022-11-20T13:51:40;3.67;;;2.13;;
6205;SDS011;3136;48.788;9.772;2022-11-20T13:54:23;3.67;;;2.30;;
6205;SDS011;3136;48.788;9.772;2022-11-20T14:00:15;2.50;;;1.80;;
6205;SDS011;3136;48.788;9.772;2022-11-20T14:02:50;3.83;;;2.00;;
6205;SDS011;3136;48.788;9.772;2022-11-20T14:08:48;2.67;;;1.80;;
6205;SDS011;3136;48.788;9.772;2022-11-20T14:14:30;3.30;;;1.80;;
6205;SDS011;3136;48.788;9.772;2022-11-20T14:16:41;4.63;;;1.90;;
6205;SDS011;3136;48.788;9.772;2022-11-20T14:22:29;3.40;;;1.80;;
6205;SDS011;3136;48.788;9.772;2022-11-20T14:24:43;6.70;;;4.70;;
6205;SDS011;3136;48.788;9.772;2022-11-20T14:27:13;2.37;;;1.90;;
6205;SDS011;3136;48.788;9.772;2022-11-20T14:29:43;2.87;;;1.90;;
6205;SDS011;3136;48.788;9.772;2022-11-20T14:32:11;2.80;;;1.90;;
6205;SDS011;3136;48.788;9.772;2022-11-20T14:34:41;4.50;;;2.77;;
6205;SDS011;3136;48.788;9.772;2022-11-20T14:37:12;2.67;;;1.90;;
6205;SDS011;3136;48.788;9.772;2022-11-20T14:39:48;2.73;;;1.90;;
6205;SDS011;3136;48.788;9.772;2022-11-20T14:42:21;3.50;;;1.67;;
6205;SDS011;3136;48.788;9.772;2022-11-20T14:44:48;2.90;;;1.77;;
6205;SDS011;3136;48.788;9.772;2022-11-20T14:47:17;2.50;;;1.70;;
6205;SDS011;3136;48.788;9.772;2022-11-20T14:49:46;2.33;;;1.80;;
6205;SDS011;3136;48.788;9.772;2022-11-20T14:52:20;1.50;;;1.40;;
6205;SDS011;3136;48.788;9.772;2022-11-20T14:54:51;5.50;;;2.70;;
6205;SDS011;3136;48.788;9.772;2022-11-20T14:57:22;3.70;;;2.43;;
6205;SDS011;3136;48.788;9.772;2022-11-20T14:59:48;4.47;;;1.40;;
6205;SDS011;3136;48.788;9.772;2022-11-20T15:02:13;2.10;;;1.90;;
6205;SDS011;3136;48.788;9.772;2022-11-20T15:04:56;2.63;;;1.87;;
6205;SDS011;3136;48.788;9.772;2022-11-20T15:07:46;3.17;;;1.87;;
6205;SDS011;3136;48.788;9.772;2022-11-20T15:10:21;3.83;;;1.60;;
6205;SDS011;3136;48.788;9.772;2022-11-20T15:12:48;3.03;;;1.50;;
6205;SDS011;3136;48.788;9.772;2022-11-20T15:16:04;2.33;;;1.53;;
6205;SDS011;3136;48.788;9.772;2022-11-20T15:18:27;4.07;;;1.60;;
6205;SDS011;3136;48.788;9.772;2022-11-20T15:20:56;2.47;;;1.30;;
6205;SDS011;3136;48.788;9.772;2022-11-20T15:23:23;1.80;;;1.30;;
6205;SDS011;3136;48.788;9.772;2022-11-20T15:25:51;5.43;;;1.57;;
6205;SDS011;3136;48.788;9.772;2022-11-20T15:30:51;3.90;;;1.63;;
6205;SDS011;3136;48.788;9.772;2022-11-20T15:33:17;2.17;;;1.60;;
6205;SDS011;3136;48.788;9.772;2022-11-20T15:35:43;2.77;;;1.57;;
6205;SDS011;3136;48.788;9.772;2022-11-20T15:38:09;4.23;;;1.60;;
6205;SDS011;3136;48.788;9.772;2022-11-20T15:40:35;2.80;;;1.90;;
6205;SDS011;3136;48.788;9.772;2022-11-20T15:43:00;3.00;;;1.70;;
6205;SDS011;3136;48.788;9.772;2022-11-20T15:48:07;2.90;;;1.70;;
6205;SDS011;3136;48.788;9.772;2022-11-20T15:50:52;4.00;;;1.80;;
6205;SDS011;3136;48.788;9.772;2022-11-20T15:53:18;2.10;;;1.80;;
6205;SDS011;3136;48.788;9.772;2022-11-20T15:55:44;1.63;;;1.40;;
6205;SDS011;3136;48.788;9.772;2022-11-20T15:58:10;4.23;;;1.90;;
6205;SDS011;3136;48.788;9.772;2022-11-20T16:00:35;7.63;;;3.23;;
6205;SDS011;3136;48.788;9.772;2022-11-20T16:03:01;4.63;;;2.80;;
6205;SDS011;3136;48.788;9.772;2022-11-20T16:05:27;4.40;;;2.10;;
6205;SDS011;3136;48.788;9.772;2022-11-20T16:07:54;6.23;;;2.60;;
6205;SDS011;3136;48.788;9.772;2022-11-20T16:10:19;6.80;;;4.27;;
6205;SDS011;3136;48.788;9.772;2022-11-20T16:12:45;7.00;;;3.83;;
6205;SDS011;3136;48.788;9.772;2022-11-20T16:15:29;3.07;;;2.27;;
6205;SDS011;3136;48.788;9.772;2022-11-20T16:18:10;4.17;;;2.47;;
6205;SDS011;3136;48.788;9.772;2022-11-20T16:20:37;3.20;;;1.70;;
6205;SDS011;3136;48.788;9.772;2022-11-20T16:23:03;2.77;;;2.20;;
6205;SDS011;3136;48.788;9.772;2022-11-20T16:25:29;3.40;;;2.60;;
6205;SDS011;3136;48.788;9.772;2022-11-20T16:27:55;2.90;;;2.40;;
6205;SDS011;3136;48.788;9.772;2022-11-20T16:30:20;4.50;;;2.83;;
6205;SDS011;3136;48.788;9.772;2022-11-20T16:32:47;6.20;;;3.27;;
6205;SDS011;3136;48.788;9.772;2022-11-20T16:35:12;5.73;;;3.60;;
6205;SDS011;3136;48.788;9.772;2022-11-20T16:37:38;6.47;;;2.70;;
6205;SDS011;3136;48.788;9.772;2022-11-20T16:40:04;5.13;;;3.50;;
6205;SDS011;3136;48.788;9.772;2022-11-20T16:42:33;3.40;;;2.70;;
6205;SDS011;3136;48.788;9.772;2022-11-20T16:44:59;3.57;;;2.80;;
6205;SDS011;3136;48.788;9.772;2022-11-20T16:47:25;4.87;;;3.30;;
6205;SDS011;3136;48.788;9.772;2022-11-20T16:49:51;5.17;;;2.60;;
6205;SDS011;3136;48.788;9.772;2022-11-20T16:52:16;3.13;;;1.93;;
6205;SDS011;3136;48.788;9.772;2022-11-20T16:54:42;6.07;;;2.33;;
6205;SDS011;3136;48.788;9.772;2022-11-20T16:57:08;7.20;;;4.17;;
6205;SDS011;3136;48.788;9.772;2022-11-20T16:59:33;4.77;;;3.00;;
6205;SDS011;3136;48.788;9.772;2022-11-20T17:01:59;4.30;;;2.30;;
6205;SDS011;3136;48.788;9.772;2022-11-20T17:04:24;7.20;;;5.17;;
6205;SDS011;3136;48.788;9.772;2022-11-20T17:06:50;6.73;;;4.93;;
6205;SDS011;3136;48.788;9.772;2022-11-20T17:09:15;7.60;;;4.30;;
6205;SDS011;3136;48.788;9.772;2022-11-20T17:11:41;6.43;;;4.53;;